sensor_id;sensor_type;location;lat;lon;timestamp;P1;durP1;ratioP1;P2;durP2;ratioP2
58615;SDS011;44385;51.992;4.206;2023-05-07T16:32:04;22.10;;;16.55;;
58615;SDS011;44385;51.992;4.206;2023-05-07T16:34:30;22.58;;;17.10;;
58615;SDS011;44385;51.992;4.206;2023-05-07T16:36:56;19.80;;;16.10;;
58615;SDS011;44385;51.992;4.206;2023-05-07T16:39:26;23.73;;;18.05;;
58615;SDS011;44385;51.992;4.206;2023-05-07T16:41:52;26.13;;;19.60;;
58615;SDS011;44385;51.992;4.206;2023-05-07T16:44:19;25.10;;;20.90;;
58615;SDS011;44385;51.992;4.206;2023-05-07T16:46:45;24.27;;;21.63;;
58615;SDS011;44385;51.992;4.206;2023-05-07T16:49:13;31.98;;;23.90;;
58615;SDS011;44385;51.992;4.206;2023-05-07T16:51:40;26.13;;;23.05;;
58615;SDS011;44385;51.992;4.206;2023-05-07T16:54:07;26.42;;;21.25;;
58615;SDS011;44385;51.992;4.206;2023-05-07T16:56:34;26.45;;;22.83;;
58615;SDS011;44385;51.992;4.206;2023-05-07T16:59:00;24.50;;;19.80;;
58615;SDS011;44385;51.992;4.206;2023-05-07T17:01:27;24.20;;;19.63;;
58615;SDS011;44385;51.992;4.206;2023-05-07T17:03:56;24.27;;;21.50;;
58615;SDS011;44385;51.992;4.206;2023-05-07T17:06:25;24.70;;;22.08;;
58615;SDS011;44385;51.992;4.206;2023-05-07T17:08:54;26.40;;;23.13;;
58615;SDS011;44385;51.992;4.206;2023-05-07T17:11:20;31.00;;;22.88;;
58615;SDS011;44385;51.992;4.206;2023-05-07T17:13:51;24.45;;;21.30;;
58615;SDS011;44385;51.992;4.206;2023-05-07T17:16:17;26.27;;;21.05;;
58615;SDS011;44385;51.992;4.206;2023-05-07T17:18:43;29.50;;;22.75;;
58615;SDS011;44385;51.992;4.206;2023-05-07T17:21:10;25.05;;;22.20;;
58615;SDS011;44385;51.992;4.206;2023-05-07T17:23:37;26.58;;;22.55;;
58615;SDS011;44385;51.992;4.206;2023-05-07T17:26:09;24.02;;;21.13;;
58615;SDS011;44385;51.992;4.206;2023-05-07T17:28:36;22.63;;;19.27;;
58615;SDS011;44385;51.992;4.206;2023-05-07T17:31:02;23.83;;;20.38;;
58615;SDS011;44385;51.992;4.206;2023-05-07T17:33:29;21.50;;;17.85;;
58615;SDS011;44385;51.992;4.206;2023-05-07T17:35:55;23.00;;;18.20;;
58615;SDS011;44385;51.992;4.206;2023-05-07T17:38:25;21.88;;;17.30;;
58615;SDS011;44385;51.992;4.206;2023-05-07T17:40:52;20.13;;;17.63;;
58615;SDS011;44385;51.992;4.206;2023-05-07T17:43:19;26.23;;;20.63;;
58615;SDS011;44385;51.992;4.206;2023-05-07T17:45:47;22.67;;;19.90;;
58615;SDS011;44385;51.992;4.206;2023-05-07T17:48:15;29.05;;;22.10;;
58615;SDS011;44385;51.992;4.206;2023-05-07T17:50:42;23.83;;;20.35;;
58615;SDS011;44385;51.992;4.206;2023-05-07T17:53:09;24.83;;;19.10;;
58615;SDS011;44385;51.992;4.206;2023-05-07T17:55:39;26.55;;;22.50;;
58615;SDS011;44385;51.992;4.206;2023-05-07T17:58:09;25.58;;;22.42;;
58615;SDS011;44385;51.992;4.206;2023-05-07T18:00:39;27.40;;;24.55;;
58615;SDS011;44385;51.992;4.206;2023-05-07T18:03:05;29.73;;;26.73;;
58615;SDS011;44385;51.992;4.206;2023-05-07T18:05:34;29.90;;;26.67;;
58615;SDS011;44385;51.992;4.206;2023-05-07T18:08:00;30.60;;;26.10;;
58615;SDS011;44385;51.992;4.206;2023-05-07T18:10:26;31.42;;;26.48;;
58615;SDS011;44385;51.992;4.206;2023-05-07T18:12:53;33.97;;;26.80;;
58615;SDS011;44385;51.992;4.206;2023-05-07T18:15:23;32.67;;;27.73;;
58615;SDS011;44385;51.992;4.206;2023-05-07T18:17:50;34.92;;;30.08;;
58615;SDS011;44385;51.992;4.206;2023-05-07T18:20:16;35.35;;;30.60;;
58615;SDS011;44385;51.992;4.206;2023-05-07T18:22:43;35.90;;;31.52;;
58615;SDS011;44385;51.992;4.206;2023-05-07T18:25:09;30.55;;;27.17;;
58615;SDS011;44385;51.992;4.206;2023-05-07T18:27:36;35.05;;;29.05;;
58615;SDS011;44385;51.992;4.206;2023-05-07T18:30:02;32.28;;;27.58;;
58615;SDS011;44385;51.992;4.206;2023-05-07T18:32:30;35.22;;;31.33;;
58615;SDS011;44385;51.992;4.206;2023-05-07T18:34:57;32.92;;;29.45;;
58615;SDS011;44385;51.992;4.206;2023-05-07T18:37:24;33.22;;;29.55;;
58615;SDS011;44385;51.992;4.206;2023-05-07T18:39:51;34.03;;;29.58;;
58615;SDS011;44385;51.992;4.206;2023-05-07T18:42:17;34.58;;;28.80;;
58615;SDS011;44385;51.992;4.206;2023-05-07T18:44:44;39.58;;;30.85;;
58615;SDS011;44385;51.992;4.206;2023-05-07T18:47:10;34.20;;;28.58;;
58615;SDS011;44385;51.992;4.206;2023-05-07T18:49:40;33.05;;;28.45;;
58615;SDS011;44385;51.992;4.206;2023-05-07T18:52:07;34.45;;;28.27;;
58615;SDS011;44385;51.992;4.206;2023-05-07T18:54:33;33.67;;;27.70;;
58615;SDS011;44385;51.992;4.206;2023-05-07T18:57:00;34.45;;;29.35;;
58615;SDS011;44385;51.992;4.206;2023-05-07T18:59:26;40.13;;;31.52;;
58615;SDS011;44385;51.992;4.206;2023-05-07T19:01:53;33.10;;;27.70;;
58615;SDS011;44385;51.992;4.206;2023-05-07T19:04:19;38.85;;;30.80;;
58615;SDS011;44385;51.992;4.206;2023-05-07T19:06:47;33.35;;;29.85;;
58615;SDS011;44385;51.992;4.206;2023-05-07T19:09:15;40.08;;;31.20;;
58615;SDS011;44385;51.992;4.206;2023-05-07T19:11:42;36.05;;;29.55;;
58615;SDS011;44385;51.992;4.206;2023-05-07T19:14:08;38.22;;;29.05;;
58615;SDS011;44385;51.992;4.206;2023-05-07T19:16:35;37.25;;;29.13;;
58615;SDS011;44385;51.992;4.206;2023-05-07T19:19:02;31.90;;;28.40;;
58615;SDS011;44385;51.992;4.206;2023-05-07T19:21:29;40.92;;;30.25;;
58615;SDS011;44385;51.992;4.206;2023-05-07T19:23:57;35.03;;;29.50;;
58615;SDS011;44385;51.992;4.206;2023-05-07T19:26:23;32.70;;;29.08;;
58615;SDS011;44385;51.992;4.206;2023-05-07T19:28:50;34.38;;;29.38;;
58615;SDS011;44385;51.992;4.206;2023-05-07T19:31:17;35.97;;;30.27;;
58615;SDS011;44385;51.992;4.206;2023-05-07T19:33:43;36.30;;;31.33;;
58615;SDS011;44385;51.992;4.206;2023-05-07T19:36:10;38.60;;;31.35;;
58615;SDS011;44385;51.992;4.206;2023-05-07T19:38:37;34.47;;;28.60;;
58615;SDS011;44385;51.992;4.206;2023-05-07T19:41:05;39.58;;;31.75;;
58615;SDS011;44385;51.992;4.206;2023-05-07T19:43:32;33.35;;;29.75;;
58615;SDS011;44385;51.992;4.206;2023-05-07T19:46:02;35.22;;;30.88;;
58615;SDS011;44385;51.992;4.206;2023-05-07T19:48:28;40.22;;;32.53;;
58615;SDS011;44385;51.992;4.206;2023-05-07T19:50:55;33.97;;;29.33;;
58615;SDS011;44385;51.992;4.206;2023-05-07T19:53:23;37.55;;;33.53;;
58615;SDS011;44385;51.992;4.206;2023-05-07T19:55:50;38.13;;;31.52;;
58615;SDS011;44385;51.992;4.206;2023-05-07T19:58:26;38.35;;;31.20;;
58615;SDS011;44385;51.992;4.206;2023-05-07T20:00:52;38.17;;;32.17;;
58615;SDS011;44385;51.992;4.206;2023-05-07T20:03:19;41.45;;;32.95;;
58615;SDS011;44385;51.992;4.206;2023-05-07T20:05:45;40.38;;;34.08;;
58615;SDS011;44385;51.992;4.206;2023-05-07T20:08:12;40.10;;;33.10;;
58615;SDS011;44385;51.992;4.206;2023-05-07T20:10:38;37.80;;;32.20;;
58615;SDS011;44385;51.992;4.206;2023-05-07T20:13:05;42.88;;;33.97;;
58615;SDS011;44385;51.992;4.206;2023-05-07T20:15:34;40.58;;;32.33;;
58615;SDS011;44385;51.992;4.206;2023-05-07T20:18:01;40.75;;;32.80;;
58615;SDS011;44385;51.992;4.206;2023-05-07T20:20:27;38.28;;;33.90;;
58615;SDS011;44385;51.992;4.206;2023-05-07T20:22:54;41.22;;;35.00;;
58615;SDS011;44385;51.992;4.206;2023-05-07T20:25:20;38.22;;;32.92;;
58615;SDS011;44385;51.992;4.206;2023-05-07T20:27:47;38.40;;;31.98;;
58615;SDS011;44385;51.992;4.206;2023-05-07T20:30:14;39.30;;;34.53;;
58615;SDS011;44385;51.992;4.206;2023-05-07T20:32:44;38.97;;;34.77;;
58615;SDS011;44385;51.992;4.206;2023-05-07T20:35:10;38.47;;;34.40;;
58615;SDS011;44385;51.992;4.206;2023-05-07T20:37:37;37.03;;;31.50;;
58615;SDS011;44385;51.992;4.206;2023-05-07T20:40:04;37.13;;;33.03;;
58615;SDS011;44385;51.992;4.206;2023-05-07T20:42:31;36.22;;;32.25;;
58615;SDS011;44385;51.992;4.206;2023-05-07T20:44:57;39.40;;;34.60;;
58615;SDS011;44385;51.992;4.206;2023-05-07T20:47:24;41.70;;;35.38;;
58615;SDS011;44385;51.992;4.206;2023-05-07T20:49:52;39.75;;;31.23;;
58615;SDS011;44385;51.992;4.206;2023-05-07T20:52:19;38.53;;;34.13;;
58615;SDS011;44385;51.992;4.206;2023-05-07T20:54:45;37.03;;;33.13;;
58615;SDS011;44385;51.992;4.206;2023-05-07T20:57:14;42.80;;;36.75;;
58615;SDS011;44385;51.992;4.206;2023-05-07T20:59:41;39.78;;;34.70;;
58615;SDS011;44385;51.992;4.206;2023-05-07T21:02:07;42.78;;;35.50;;
58615;SDS011;44385;51.992;4.206;2023-05-07T21:04:34;43.90;;;35.85;;
58615;SDS011;44385;51.992;4.206;2023-05-07T21:07:01;39.20;;;34.97;;
58615;SDS011;44385;51.992;4.206;2023-05-07T21:09:28;41.85;;;37.30;;
58615;SDS011;44385;51.992;4.206;2023-05-07T21:11:54;42.03;;;36.42;;
58615;SDS011;44385;51.992;4.206;2023-05-07T21:14:23;40.10;;;35.92;;
58615;SDS011;44385;51.992;4.206;2023-05-07T21:16:49;40.28;;;35.50;;
58615;SDS011;44385;51.992;4.206;2023-05-07T21:19:16;41.47;;;35.15;;
58615;SDS011;44385;51.992;4.206;2023-05-07T21:21:42;38.97;;;34.50;;
58615;SDS011;44385;51.992;4.206;2023-05-07T21:24:10;38.65;;;34.03;;
58615;SDS011;44385;51.992;4.206;2023-05-07T21:26:37;40.08;;;34.80;;
58615;SDS011;44385;51.992;4.206;2023-05-07T21:29:04;41.17;;;35.42;;
58615;SDS011;44385;51.992;4.206;2023-05-07T21:31:30;38.55;;;34.53;;
58615;SDS011;44385;51.992;4.206;2023-05-07T21:33:57;42.50;;;35.47;;
58615;SDS011;44385;51.992;4.206;2023-05-07T21:36:23;43.90;;;37.45;;
58615;SDS011;44385;51.992;4.206;2023-05-07T21:38:50;42.95;;;36.88;;
58615;SDS011;44385;51.992;4.206;2023-05-07T21:41:17;42.17;;;34.95;;
58615;SDS011;44385;51.992;4.206;2023-05-07T21:43:44;40.72;;;36.45;;
58615;SDS011;44385;51.992;4.206;2023-05-07T21:46:11;43.75;;;39.00;;
58615;SDS011;44385;51.992;4.206;2023-05-07T21:48:38;46.85;;;39.25;;
58615;SDS011;44385;51.992;4.206;2023-05-07T21:51:06;42.15;;;36.53;;
58615;SDS011;44385;51.992;4.206;2023-05-07T21:53:33;47.13;;;40.47;;
58615;SDS011;44385;51.992;4.206;2023-05-07T21:56:00;44.28;;;38.22;;
58615;SDS011;44385;51.992;4.206;2023-05-07T21:58:28;45.63;;;40.63;;
58615;SDS011;44385;51.992;4.206;2023-05-07T22:00:55;44.47;;;38.72;;
58615;SDS011;44385;51.992;4.206;2023-05-07T22:03:22;42.90;;;37.72;;
58615;SDS011;44385;51.992;4.206;2023-05-07T22:05:49;43.17;;;35.90;;
58615;SDS011;44385;51.992;4.206;2023-05-07T22:08:16;46.30;;;37.03;;
58615;SDS011;44385;51.992;4.206;2023-05-07T22:10:42;50.03;;;41.22;;
58615;SDS011;44385;51.992;4.206;2023-05-07T22:13:08;44.58;;;38.90;;
58615;SDS011;44385;51.992;4.206;2023-05-07T22:15:37;45.88;;;36.90;;
58615;SDS011;44385;51.992;4.206;2023-05-07T22:18:03;41.47;;;36.78;;
58615;SDS011;44385;51.992;4.206;2023-05-07T22:20:30;47.55;;;40.03;;
58615;SDS011;44385;51.992;4.206;2023-05-07T22:22:56;42.42;;;36.13;;
58615;SDS011;44385;51.992;4.206;2023-05-07T22:25:23;45.63;;;36.80;;
58615;SDS011;44385;51.992;4.206;2023-05-07T22:27:50;41.33;;;35.22;;
58615;SDS011;44385;51.992;4.206;2023-05-07T22:30:17;43.47;;;36.53;;
58615;SDS011;44385;51.992;4.206;2023-05-07T22:32:44;46.70;;;37.28;;
58615;SDS011;44385;51.992;4.206;2023-05-07T22:35:11;42.78;;;36.40;;
58615;SDS011;44385;51.992;4.206;2023-05-07T22:37:38;45.22;;;35.92;;
58615;SDS011;44385;51.992;4.206;2023-05-07T22:40:05;45.53;;;37.05;;
58615;SDS011;44385;51.992;4.206;2023-05-07T22:42:31;43.33;;;35.67;;
58615;SDS011;44385;51.992;4.206;2023-05-07T22:44:58;48.25;;;40.03;;
58615;SDS011;44385;51.992;4.206;2023-05-07T22:47:27;51.80;;;40.53;;
58615;SDS011;44385;51.992;4.206;2023-05-07T22:49:54;48.60;;;41.05;;
58615;SDS011;44385;51.992;4.206;2023-05-07T22:52:21;47.95;;;39.67;;
58615;SDS011;44385;51.992;4.206;2023-05-07T22:54:49;46.70;;;38.50;;
58615;SDS011;44385;51.992;4.206;2023-05-07T22:57:16;48.17;;;39.75;;
58615;SDS011;44385;51.992;4.206;2023-05-07T22:59:42;47.38;;;38.50;;
58615;SDS011;44385;51.992;4.206;2023-05-07T23:02:09;46.60;;;40.88;;
58615;SDS011;44385;51.992;4.206;2023-05-07T23:04:35;46.30;;;38.00;;
58615;SDS011;44385;51.992;4.206;2023-05-07T23:07:03;49.20;;;40.28;;
58615;SDS011;44385;51.992;4.206;2023-05-07T23:09:29;51.75;;;40.60;;
58615;SDS011;44385;51.992;4.206;2023-05-07T23:11:55;53.58;;;42.33;;
58615;SDS011;44385;51.992;4.206;2023-05-07T23:14:22;51.35;;;40.42;;
58615;SDS011;44385;51.992;4.206;2023-05-07T23:16:49;53.63;;;41.03;;
58615;SDS011;44385;51.992;4.206;2023-05-07T23:19:15;55.78;;;44.35;;
58615;SDS011;44385;51.992;4.206;2023-05-07T23:21:42;56.05;;;42.38;;
58615;SDS011;44385;51.992;4.206;2023-05-07T23:24:10;49.83;;;41.45;;
58615;SDS011;44385;51.992;4.206;2023-05-07T23:26:36;49.92;;;42.05;;
58615;SDS011;44385;51.992;4.206;2023-05-07T23:29:03;52.38;;;39.90;;
58615;SDS011;44385;51.992;4.206;2023-05-07T23:31:29;48.45;;;40.80;;
58615;SDS011;44385;51.992;4.206;2023-05-07T23:33:56;50.72;;;39.95;;
58615;SDS011;44385;51.992;4.206;2023-05-07T23:36:22;64.00;;;45.45;;
58615;SDS011;44385;51.992;4.206;2023-05-07T23:38:49;57.30;;;44.40;;
58615;SDS011;44385;51.992;4.206;2023-05-07T23:41:17;57.88;;;44.75;;
58615;SDS011;44385;51.992;4.206;2023-05-07T23:43:43;52.15;;;41.55;;
58615;SDS011;44385;51.992;4.206;2023-05-07T23:46:09;60.80;;;45.45;;
58615;SDS011;44385;51.992;4.206;2023-05-07T23:48:36;56.58;;;43.50;;
58615;SDS011;44385;51.992;4.206;2023-05-07T23:51:02;59.75;;;46.70;;
58615;SDS011;44385;51.992;4.206;2023-05-07T23:53:29;58.67;;;45.47;;
58615;SDS011;44385;51.992;4.206;2023-05-07T23:55:55;58.42;;;45.50;;
58615;SDS011;44385;51.992;4.206;2023-05-07T23:58:23;60.30;;;46.65;;
